AEE2BR LGAV-EBBR
Flight info
| Callsign | AEE2BR |
|---|---|
| Flight time | N/A |
| Altitude | 34000 |
| Route | KOR UL53 ELVAS DCT TUMBO DCT OVVER DCT RODON DCT VAKSU DCT MONFA DCT BAKOR DCT SOTOV DCT KPT L608 KUNOD DCT IDOVI Z104 GESLO N852 LNO |
| Aircraft | A321/M-SDE3FGHIRWY/LB1 |
Departure
| Time | 2026-05-07 06:21 |
|---|---|
| Airport | Athens Eleftherios Venizelos International Airport (LGAV) |
Arrival
| Time | N/A |
|---|---|
| Airport | Brussels Airport (EBBR) |
| Time | Latitude | Longitude | Altitude | Speed | Heading |
|---|---|---|---|---|---|
| 2026-05-07 05:47 | 37.94004 | 23.95337 | 301 ft | 0 kts | 39° |
| 2026-05-07 06:12 | 37.93994 | 23.95327 | 301 ft | 4 kts | 39° |
| 2026-05-07 06:13 | 37.93977 | 23.95309 | 301 ft | 3 kts | 39° |
| 2026-05-07 06:13 | 37.93956 | 23.95288 | 302 ft | 4 kts | 46° |
| 2026-05-07 06:13 | 37.93945 | 23.95265 | 300 ft | 4 kts | 108° |
| 2026-05-07 06:13 | 37.93956 | 23.95241 | 300 ft | 2 kts | 126° |
| 2026-05-07 06:14 | 37.93957 | 23.95239 | 300 ft | 0 kts | 126° |
| 2026-05-07 06:15 | 37.93957 | 23.95240 | 300 ft | 1 kts | 126° |
| 2026-05-07 06:16 | 37.93929 | 23.95286 | 300 ft | 10 kts | 127° |
| 2026-05-07 06:16 | 37.93883 | 23.95362 | 299 ft | 12 kts | 128° |
| 2026-05-07 06:16 | 37.93859 | 23.95467 | 300 ft | 15 kts | 65° |
| 2026-05-07 06:16 | 37.93940 | 23.95557 | 298 ft | 16 kts | 36° |
| 2026-05-07 06:17 | 37.94034 | 23.95646 | 297 ft | 18 kts | 37° |
| 2026-05-07 06:17 | 37.94134 | 23.95743 | 300 ft | 19 kts | 37° |
| 2026-05-07 06:17 | 37.94240 | 23.95844 | 299 ft | 20 kts | 37° |
| 2026-05-07 06:17 | 37.94351 | 23.95949 | 298 ft | 21 kts | 37° |
| 2026-05-07 06:18 | 37.94469 | 23.96061 | 299 ft | 22 kts | 37° |
| 2026-05-07 06:18 | 37.94590 | 23.96175 | 301 ft | 22 kts | 37° |
| 2026-05-07 06:18 | 37.94716 | 23.96294 | 300 ft | 23 kts | 37° |
| 2026-05-07 06:18 | 37.94845 | 23.96416 | 301 ft | 23 kts | 37° |
| 2026-05-07 06:19 | 37.94977 | 23.96541 | 303 ft | 24 kts | 37° |
| 2026-05-07 06:19 | 37.95112 | 23.96668 | 302 ft | 24 kts | 37° |
| 2026-05-07 06:19 | 37.95246 | 23.96795 | 303 ft | 21 kts | 37° |
| 2026-05-07 06:19 | 37.95280 | 23.96921 | 306 ft | 16 kts | 119° |
| 2026-05-07 06:20 | 37.95217 | 23.97013 | 311 ft | 11 kts | 158° |
| 2026-05-07 06:20 | 37.95148 | 23.96979 | 310 ft | 11 kts | 216° |
| 2026-05-07 06:20 | 37.95009 | 23.96849 | 308 ft | 54 kts | 217° |
| 2026-05-07 06:20 | 37.94543 | 23.96405 | 295 ft | 114 kts | 217° |
| 2026-05-07 06:21 | 37.93782 | 23.95681 | 279 ft | 158 kts | 217° |
| 2026-05-07 06:21 | 37.92836 | 23.94799 | 626 ft | 170 kts | 214° |
| 2026-05-07 06:21 | 37.91826 | 23.94037 | 1246 ft | 168 kts | 207° |
| 2026-05-07 06:21 | 37.90797 | 23.93372 | 1877 ft | 166 kts | 207° |
| 2026-05-07 06:22 | 37.89729 | 23.92680 | 2168 ft | 183 kts | 207° |
| 2026-05-07 06:22 | 37.87198 | 23.91014 | 2521 ft | 228 kts | 208° |
| 2026-05-07 06:22 | 37.85742 | 23.90035 | 3032 ft | 241 kts | 207° |
| 2026-05-07 06:23 | 37.84254 | 23.89029 | 3801 ft | 244 kts | 207° |
| 2026-05-07 06:23 | 37.82753 | 23.88011 | 4580 ft | 246 kts | 208° |
| 2026-05-07 06:23 | 37.81239 | 23.86980 | 5352 ft | 248 kts | 208° |
| 2026-05-07 06:23 | 37.79714 | 23.85935 | 6118 ft | 251 kts | 208° |
| 2026-05-07 06:24 | 37.78170 | 23.84877 | 6839 ft | 254 kts | 208° |
| 2026-05-07 06:24 | 37.76600 | 23.83803 | 7508 ft | 258 kts | 208° |
| 2026-05-07 06:24 | 37.75006 | 23.82715 | 8171 ft | 263 kts | 209° |
| 2026-05-07 06:24 | 37.73376 | 23.81619 | 8827 ft | 267 kts | 208° |
| 2026-05-07 06:25 | 37.71717 | 23.80515 | 9478 ft | 272 kts | 209° |
| 2026-05-07 06:25 | 37.70029 | 23.79392 | 10114 ft | 277 kts | 209° |
| 2026-05-07 06:25 | 37.68312 | 23.78253 | 10701 ft | 280 kts | 210° |
| 2026-05-07 06:25 | 37.66579 | 23.77103 | 11310 ft | 283 kts | 210° |
| 2026-05-07 06:26 | 37.64827 | 23.75940 | 11919 ft | 285 kts | 210° |
| 2026-05-07 06:26 | 37.63059 | 23.74768 | 12526 ft | 288 kts | 211° |
| 2026-05-07 06:26 | 37.61279 | 23.73586 | 13158 ft | 290 kts | 211° |
| 2026-05-07 06:26 | 37.59490 | 23.72400 | 13790 ft | 292 kts | 211° |
| 2026-05-07 06:27 | 37.57689 | 23.71198 | 14335 ft | 294 kts | 213° |
| 2026-05-07 06:27 | 37.56221 | 23.69708 | 14517 ft | 302 kts | 236° |
| 2026-05-07 06:27 | 37.55267 | 23.67202 | 14648 ft | 313 kts | 259° |
| 2026-05-07 06:27 | 37.54833 | 23.64442 | 14770 ft | 329 kts | 261° |
| 2026-05-07 06:28 | 37.54387 | 23.61582 | 14892 ft | 345 kts | 261° |
| 2026-05-07 06:28 | 37.53903 | 23.58551 | 15008 ft | 361 kts | 260° |
| 2026-05-07 06:28 | 37.53390 | 23.55399 | 15160 ft | 374 kts | 260° |
| 2026-05-07 06:28 | 37.52854 | 23.52163 | 15521 ft | 379 kts | 260° |
| 2026-05-07 06:29 | 37.52308 | 23.48898 | 15963 ft | 383 kts | 260° |
| 2026-05-07 06:29 | 37.51756 | 23.45605 | 16435 ft | 385 kts | 259° |